createdAt,value
2023-01-27T00:01:31.295Z,0.77
2023-01-27T00:04:02.265Z,1.23
2023-01-27T00:09:09.495Z,0.90
2023-01-27T00:11:55.248Z,0.85
2023-01-27T00:14:26.790Z,1.13
2023-01-27T00:16:57.677Z,1.13
2023-01-27T00:19:28.502Z,0.82
2023-01-27T00:22:11.562Z,2.08
2023-01-27T00:24:43.741Z,1.00
2023-01-27T00:27:17.165Z,0.88
2023-01-27T00:29:47.947Z,1.10
2023-01-27T00:32:31.130Z,1.30
2023-01-27T00:35:01.942Z,1.23
2023-01-27T00:37:32.982Z,1.13
2023-01-27T00:40:03.783Z,1.10
2023-01-27T00:42:39.414Z,1.63
2023-01-27T00:45:23.642Z,1.33
2023-01-27T00:47:55.208Z,1.40
2023-01-27T00:50:26.120Z,1.25
2023-01-27T00:52:59.310Z,1.20
2023-01-27T00:55:30.804Z,0.90
2023-01-27T00:58:04.551Z,1.40
2023-01-27T01:00:35.501Z,0.90
2023-01-27T01:03:06.610Z,1.20
2023-01-27T01:05:37.522Z,1.73
2023-01-27T01:08:08.402Z,0.90
2023-01-27T01:10:41.485Z,1.20
2023-01-27T01:13:15.250Z,0.93
2023-01-27T01:15:46.257Z,1.02
2023-01-27T01:18:18.020Z,1.00
2023-01-27T01:20:50.170Z,0.70
2023-01-27T01:23:20.976Z,1.45
2023-01-27T01:25:57.591Z,1.13
2023-01-27T01:28:30.945Z,1.00
2023-01-27T01:31:07.816Z,1.10
2023-01-27T01:33:39.555Z,1.23
2023-01-27T01:36:12.458Z,1.00
2023-01-27T01:38:43.608Z,0.98
2023-01-27T01:41:17.272Z,1.77
2023-01-27T01:43:51.311Z,1.20
2023-01-27T01:46:23.101Z,0.90
2023-01-27T01:48:56.572Z,1.08
2023-01-27T01:51:31.917Z,1.00
2023-01-27T01:54:06.469Z,1.73
2023-01-27T01:56:41.836Z,0.95
2023-01-27T01:59:20.410Z,1.20
2023-01-27T02:01:51.964Z,1.10
2023-01-27T02:04:26.916Z,0.80
2023-01-27T02:07:06.534Z,0.93
2023-01-27T02:09:37.776Z,1.58
2023-01-27T02:12:09.380Z,0.93
2023-01-27T02:14:45.260Z,0.70
2023-01-27T02:17:17.192Z,0.98
2023-01-27T02:19:59.900Z,0.82
2023-01-27T02:22:39.520Z,1.27
2023-01-27T02:25:21.105Z,1.15
2023-01-27T02:27:54.618Z,0.85
2023-01-27T02:30:25.566Z,1.40
2023-01-27T02:32:56.408Z,0.95
2023-01-27T02:35:36.317Z,0.85
2023-01-27T02:38:09.354Z,0.57
2023-01-27T02:40:40.964Z,0.68
2023-01-27T02:43:14.384Z,0.70
2023-01-27T02:45:45.788Z,1.10
2023-01-27T02:48:16.966Z,1.00
2023-01-27T02:50:48.754Z,0.90
2023-01-27T02:53:19.826Z,1.00
2023-01-27T02:55:50.761Z,0.80
2023-01-27T02:58:24.225Z,0.80
2023-01-27T03:00:58.589Z,1.10
2023-01-27T03:03:29.462Z,0.70
2023-01-27T03:06:00.300Z,0.77
2023-01-27T03:08:31.833Z,0.47
2023-01-27T03:11:02.664Z,0.60
2023-01-27T03:13:42.532Z,1.00
2023-01-27T03:16:27.554Z,0.70
2023-01-27T03:18:58.568Z,0.65
2023-01-27T03:21:29.397Z,0.60
2023-01-27T03:24:00.486Z,0.30
2023-01-27T03:26:31.721Z,0.50
2023-01-27T03:29:27.117Z,0.70
2023-01-27T03:31:58.101Z,0.90
2023-01-27T03:34:29.082Z,0.57
2023-01-27T03:37:20.058Z,0.60
2023-01-27T03:40:03.229Z,0.63
2023-01-27T03:42:47.498Z,0.93
2023-01-27T03:45:33.277Z,1.27
2023-01-27T03:48:04.085Z,1.13
2023-01-27T03:50:43.465Z,0.95
2023-01-27T03:53:14.717Z,1.40
2023-01-27T03:55:47.037Z,1.17
2023-01-27T03:58:26.990Z,1.13
2023-01-27T04:01:02.626Z,1.42
2023-01-27T04:03:48.389Z,1.20
2023-01-27T04:06:33.889Z,1.08
2023-01-27T04:09:05.330Z,1.05
2023-01-27T04:11:48.678Z,1.40
2023-01-27T04:14:20.090Z,2.08
2023-01-27T04:16:54.550Z,1.42
2023-01-27T04:19:26.125Z,1.33
2023-01-27T04:21:57.718Z,1.30
2023-01-27T04:24:28.773Z,1.30
2023-01-27T04:27:00.871Z,1.35
2023-01-27T04:29:35.005Z,1.70
2023-01-27T04:32:10.316Z,0.90
2023-01-27T04:34:42.059Z,0.93
2023-01-27T04:37:13.550Z,1.23
2023-01-27T04:39:48.229Z,0.98
2023-01-27T04:42:19.038Z,1.33
2023-01-27T04:44:49.932Z,1.02
2023-01-27T04:47:23.378Z,1.42
2023-01-27T04:49:54.197Z,1.20
2023-01-27T04:52:25.152Z,0.90
2023-01-27T04:54:56.009Z,2.47
2023-01-27T04:57:28.209Z,2.90
2023-01-27T04:59:59.137Z,2.45
2023-01-27T05:02:32.629Z,1.20
2023-01-27T05:05:04.934Z,1.80
2023-01-27T05:07:36.099Z,1.50
2023-01-27T05:10:07.448Z,1.10
2023-01-27T05:12:38.373Z,0.93
2023-01-27T05:15:11.212Z,1.40
2023-01-27T05:17:44.810Z,1.48
2023-01-27T05:20:16.141Z,1.27
2023-01-27T05:22:47.003Z,0.95
2023-01-27T05:25:17.959Z,1.20
2023-01-27T05:27:48.985Z,0.93
2023-01-27T05:30:20.144Z,1.00
2023-01-27T05:32:53.540Z,1.27
2023-01-27T05:35:24.330Z,1.42
2023-01-27T05:37:55.192Z,0.88
2023-01-27T05:40:26.137Z,1.45
2023-01-27T05:42:57.261Z,1.13
2023-01-27T05:45:28.055Z,0.82
2023-01-27T05:48:01.445Z,0.77
2023-01-27T05:50:32.261Z,0.88
2023-01-27T05:53:03.027Z,0.95
2023-01-27T05:55:33.985Z,1.30
2023-01-27T05:58:04.811Z,1.30
2023-01-27T06:00:35.867Z,0.90
2023-01-27T06:03:09.467Z,0.98
2023-01-27T06:05:40.463Z,1.13
2023-01-27T06:08:12.339Z,1.02
2023-01-27T06:10:43.669Z,1.70
2023-01-27T06:13:15.968Z,0.80
2023-01-27T06:15:49.015Z,0.63
2023-01-27T06:18:24.216Z,0.77
2023-01-27T06:20:55.333Z,0.88
2023-01-27T06:23:27.985Z,1.10
2023-01-27T06:26:00.043Z,1.08
2023-01-27T06:28:30.967Z,1.10
2023-01-27T06:31:09.281Z,0.77
2023-01-27T06:33:43.835Z,0.80
2023-01-27T06:36:16.631Z,0.73
2023-01-27T06:38:48.064Z,0.98
2023-01-27T06:41:21.057Z,1.08
2023-01-27T06:43:53.159Z,0.98
2023-01-27T06:46:26.767Z,0.90
2023-01-27T06:49:00.334Z,1.05
2023-01-27T06:51:31.114Z,1.02
2023-01-27T06:54:01.870Z,1.20
2023-01-27T06:56:32.827Z,0.80
2023-01-27T06:59:03.824Z,0.85
2023-01-27T07:01:35.419Z,2.53
2023-01-27T07:04:09.399Z,1.23
2023-01-27T07:06:40.316Z,1.25
2023-01-27T07:09:11.567Z,0.80
2023-01-27T07:11:42.741Z,2.05
2023-01-27T07:14:13.673Z,2.08
2023-01-27T07:16:44.541Z,1.58
2023-01-27T07:19:18.150Z,0.80
2023-01-27T07:21:49.054Z,0.93
2023-01-27T07:24:19.993Z,1.08
2023-01-27T07:26:50.905Z,1.00
2023-01-27T07:29:21.730Z,2.22
2023-01-27T07:31:52.638Z,0.93
2023-01-27T07:34:26.250Z,1.10
2023-01-27T07:36:57.648Z,0.77
2023-01-27T07:39:28.752Z,0.88
2023-01-27T07:42:01.841Z,1.10
2023-01-27T07:44:33.378Z,0.95
2023-01-27T07:47:04.511Z,0.80
2023-01-27T07:49:38.739Z,0.93
2023-01-27T07:52:09.744Z,1.00
2023-01-27T07:54:40.704Z,1.27
2023-01-27T07:57:11.584Z,1.55
2023-01-27T07:59:42.665Z,1.15
2023-01-27T08:02:14.591Z,0.98
2023-01-27T08:04:53.570Z,0.75
2023-01-27T08:07:24.825Z,1.05
2023-01-27T08:09:57.537Z,1.10
2023-01-27T08:12:28.495Z,1.23
2023-01-27T08:14:59.296Z,1.63
2023-01-27T08:17:30.113Z,2.05
2023-01-27T08:20:03.601Z,1.00
2023-01-27T08:22:34.740Z,0.90
2023-01-27T08:25:05.700Z,1.00
2023-01-27T08:27:36.432Z,0.93
2023-01-27T08:30:21.434Z,0.90
2023-01-27T08:32:52.732Z,1.13
2023-01-27T08:35:26.343Z,0.98
2023-01-27T08:38:02.528Z,1.67
2023-01-27T08:40:40.262Z,0.68
2023-01-27T08:43:16.876Z,1.10
2023-01-27T08:45:48.214Z,0.80
2023-01-27T08:48:19.233Z,1.52
2023-01-27T08:50:53.110Z,0.52
2023-01-27T08:53:24.063Z,1.05
2023-01-27T08:55:57.368Z,0.80
2023-01-27T08:58:29.934Z,0.88
2023-01-27T09:01:05.173Z,1.05
2023-01-27T09:03:38.055Z,1.08
2023-01-27T09:06:14.671Z,1.38
2023-01-27T09:09:07.529Z,0.90
2023-01-27T09:11:41.246Z,1.05
2023-01-27T09:14:12.623Z,1.23
2023-01-27T09:16:43.593Z,1.58
2023-01-27T09:19:14.666Z,0.95
2023-01-27T09:21:48.147Z,1.48
2023-01-27T09:24:19.693Z,0.95
2023-01-27T09:26:50.804Z,1.10
2023-01-27T09:29:21.648Z,0.80
2023-01-27T09:31:52.546Z,1.20
2023-01-27T09:34:23.539Z,1.10
2023-01-27T09:37:00.702Z,1.30
2023-01-27T09:39:32.658Z,1.15
2023-01-27T09:42:25.751Z,0.90
2023-01-27T09:45:18.557Z,0.88
2023-01-27T09:48:07.817Z,1.00
2023-01-27T09:50:47.331Z,1.00
2023-01-27T09:53:50.841Z,0.75
2023-01-27T09:56:35.355Z,1.30
2023-01-27T09:59:30.216Z,0.88
2023-01-27T10:02:13.842Z,0.88
2023-01-27T10:05:15.648Z,0.73
2023-01-27T10:08:08.388Z,0.98
2023-01-27T10:11:05.341Z,1.02
2023-01-27T10:13:44.899Z,0.80
2023-01-27T10:16:29.827Z,0.90
2023-01-27T10:19:12.932Z,0.85
2023-01-27T10:21:53.907Z,1.20
2023-01-27T10:24:38.064Z,1.00
2023-01-27T10:27:19.511Z,1.30
2023-01-27T10:29:59.499Z,0.90
2023-01-27T10:32:33.623Z,0.98
2023-01-27T10:35:16.829Z,1.20
2023-01-27T10:38:11.125Z,1.00
2023-01-27T10:40:49.189Z,0.90
2023-01-27T10:43:29.383Z,1.40
2023-01-27T10:46:07.926Z,1.05
2023-01-27T10:48:44.795Z,1.05
2023-01-27T10:51:20.800Z,1.15
2023-01-27T10:54:00.357Z,1.23
2023-01-27T10:56:37.354Z,1.25
2023-01-27T11:01:50.144Z,1.17
2023-01-27T11:04:37.763Z,1.88
2023-01-27T11:07:09.593Z,1.48
2023-01-27T11:09:46.136Z,1.40
2023-01-27T11:12:19.386Z,1.48
2023-01-27T11:14:55.276Z,1.83
2023-01-27T11:17:32.413Z,1.05
2023-01-27T11:20:13.371Z,1.25
2023-01-27T11:22:54.182Z,0.98
2023-01-27T11:25:30.683Z,2.05
2023-01-27T11:28:16.275Z,1.58
2023-01-27T11:30:58.256Z,1.67
2023-01-27T11:33:34.713Z,1.60
2023-01-27T11:36:06.082Z,1.37
2023-01-27T11:38:36.903Z,1.58
2023-01-27T11:41:08.107Z,1.60
2023-01-27T11:43:40.430Z,1.35
2023-01-27T11:46:18.672Z,1.70
2023-01-27T11:48:53.836Z,1.20
2023-01-27T11:51:29.431Z,1.38
2023-01-27T11:54:08.193Z,1.40
2023-01-27T11:56:40.959Z,1.25
2023-01-27T11:59:16.935Z,1.23
2023-01-27T12:01:54.140Z,1.60
2023-01-27T12:04:32.153Z,1.50
2023-01-27T12:07:07.575Z,1.58
2023-01-27T12:09:40.199Z,1.45
2023-01-27T12:12:23.364Z,2.60
2023-01-27T12:14:56.529Z,1.30
2023-01-27T12:17:34.453Z,2.00
2023-01-27T12:20:10.667Z,1.65
2023-01-27T12:22:43.605Z,1.60
2023-01-27T12:25:23.094Z,1.70
2023-01-27T12:27:57.889Z,1.45
2023-01-27T12:30:31.792Z,0.93
2023-01-27T12:33:15.184Z,1.33
2023-01-27T12:35:52.680Z,1.40
2023-01-27T12:38:27.134Z,1.08
2023-01-27T12:41:03.087Z,1.20
2023-01-27T12:43:34.143Z,2.00
2023-01-27T12:46:18.570Z,1.00
2023-01-27T12:48:54.533Z,1.20
2023-01-27T12:51:27.594Z,0.98
2023-01-27T12:54:19.863Z,1.65
2023-01-27T12:56:50.951Z,0.75
2023-01-27T12:59:24.359Z,0.95
2023-01-27T13:02:06.638Z,0.90
2023-01-27T13:04:40.121Z,1.15
2023-01-27T13:07:15.948Z,0.90
2023-01-27T13:09:54.111Z,0.95
2023-01-27T13:12:30.774Z,0.90
2023-01-27T13:15:08.774Z,1.00
2023-01-27T13:17:41.478Z,0.85
2023-01-27T13:20:22.940Z,0.90
2023-01-27T13:22:59.610Z,1.35
2023-01-27T13:25:39.653Z,1.23
2023-01-27T13:28:11.858Z,1.45
2023-01-27T13:30:47.162Z,1.20
2023-01-27T13:33:30.086Z,1.48
2023-01-27T13:36:09.376Z,1.00
2023-01-27T13:38:47.897Z,1.10
2023-01-27T13:41:25.367Z,1.20
2023-01-27T13:44:05.025Z,0.88
2023-01-27T13:46:40.873Z,0.80
2023-01-27T13:49:24.239Z,0.70
2023-01-27T13:51:57.876Z,1.20
2023-01-27T13:54:30.319Z,1.20
2023-01-27T13:57:15.055Z,1.13
2023-01-27T14:00:00.823Z,1.95
2023-01-27T14:02:50.070Z,1.80
2023-01-27T14:05:39.940Z,1.10
2023-01-27T14:08:24.178Z,1.00
2023-01-27T14:11:07.951Z,1.00
2023-01-27T14:13:55.163Z,1.45
2023-01-27T14:16:37.249Z,1.30
2023-01-27T14:19:21.392Z,1.30
2023-01-27T14:21:59.847Z,1.10
2023-01-27T14:24:42.671Z,1.10
2023-01-27T14:27:17.609Z,1.75
2023-01-27T14:29:55.769Z,1.60
2023-01-27T14:32:33.826Z,1.30
2023-01-27T14:35:21.556Z,1.20
2023-01-27T14:38:04.644Z,1.90
2023-01-27T14:40:43.356Z,2.03
2023-01-27T14:43:23.057Z,1.08
2023-01-27T14:46:03.013Z,1.40
2023-01-27T14:48:45.946Z,1.67
2023-01-27T14:51:27.330Z,1.58
2023-01-27T14:54:22.561Z,1.55
2023-01-27T14:57:10.360Z,1.65
2023-01-27T14:59:47.898Z,1.55
2023-01-27T15:02:34.411Z,1.92
2023-01-27T15:05:13.742Z,1.90
2023-01-27T15:07:56.010Z,2.00
2023-01-27T15:10:28.610Z,1.38
2023-01-27T15:13:41.473Z,1.33
2023-01-27T15:16:23.797Z,1.92
2023-01-27T15:19:35.360Z,2.55
2023-01-27T15:22:33.846Z,1.58
2023-01-27T15:25:34.270Z,1.58
2023-01-27T15:28:08.550Z,1.85
2023-01-27T15:30:43.486Z,2.05
2023-01-27T15:33:47.310Z,3.15
2023-01-27T15:36:37.541Z,3.40
2023-01-27T15:39:35.639Z,3.28
2023-01-27T15:42:15.482Z,3.80
2023-01-27T15:45:02.873Z,3.33
2023-01-27T15:47:39.470Z,2.42
2023-01-27T15:50:17.839Z,2.78
2023-01-27T15:52:51.028Z,2.25
2023-01-27T15:55:30.456Z,2.20
2023-01-27T15:58:21.484Z,2.10
2023-01-27T16:00:58.660Z,1.98
2023-01-27T16:03:38.125Z,2.50
2023-01-27T16:06:18.390Z,3.22
2023-01-27T16:08:53.882Z,1.90
2023-01-27T16:11:46.094Z,2.97
2023-01-27T16:14:49.156Z,4.10
2023-01-27T16:17:29.232Z,3.22
2023-01-27T16:20:16.987Z,2.00
2023-01-27T16:22:51.499Z,2.10
2023-01-27T16:25:29.937Z,1.70
2023-01-27T16:31:06.206Z,1.25
2023-01-27T16:33:43.454Z,2.28
2023-01-27T16:36:24.002Z,2.55
2023-01-27T16:38:56.146Z,2.28
2023-01-27T16:41:33.007Z,2.53
2023-01-27T16:44:06.561Z,2.35
2023-01-27T16:46:45.207Z,2.00
2023-01-27T16:49:21.736Z,2.15
2023-01-27T16:52:01.239Z,2.80
2023-01-27T16:54:37.613Z,2.45
2023-01-27T16:57:09.673Z,1.98
2023-01-27T16:59:43.644Z,2.75
2023-01-27T17:02:22.924Z,2.95
2023-01-27T17:04:55.895Z,4.28
2023-01-27T17:07:32.200Z,4.78
2023-01-27T17:10:09.274Z,3.83
2023-01-27T17:12:46.066Z,3.80
2023-01-27T17:15:23.127Z,3.25
2023-01-27T17:17:54.908Z,4.50
2023-01-27T17:20:32.320Z,3.10
2023-01-27T17:23:06.223Z,3.17
2023-01-27T17:25:40.750Z,3.05
2023-01-27T17:28:20.756Z,3.35
2023-01-27T17:30:52.039Z,4.22
2023-01-27T17:33:24.638Z,2.75
2023-01-27T17:35:57.949Z,3.92
2023-01-27T17:38:44.710Z,2.50
2023-01-27T17:41:37.958Z,3.20
2023-01-27T17:44:16.428Z,2.92
2023-01-27T17:46:47.403Z,2.53
2023-01-27T17:49:20.434Z,2.45
2023-01-27T17:51:54.678Z,2.30
2023-01-27T17:54:31.317Z,2.53
2023-01-27T17:57:07.922Z,2.97
2023-01-27T17:59:41.920Z,3.30
2023-01-27T18:02:21.784Z,3.45
2023-01-27T18:04:53.378Z,4.18
2023-01-27T18:07:25.122Z,3.88
2023-01-27T18:09:59.468Z,3.78
2023-01-27T18:12:35.968Z,3.72
2023-01-27T18:15:36.441Z,3.92
2023-01-27T18:18:09.833Z,3.88
2023-01-27T18:20:40.961Z,3.97
2023-01-27T18:23:19.494Z,3.47
2023-01-27T18:26:03.895Z,3.50
2023-01-27T18:28:39.168Z,3.25
2023-01-27T18:31:18.064Z,4.25
2023-01-27T18:33:49.297Z,4.60
2023-01-27T18:36:25.766Z,4.40
2023-01-27T18:38:57.321Z,4.60
2023-01-27T18:41:33.096Z,4.70
2023-01-27T18:44:04.036Z,4.55
2023-01-27T18:46:34.952Z,4.28
2023-01-27T18:49:11.990Z,4.53
2023-01-27T18:51:42.907Z,4.90
2023-01-27T18:54:15.316Z,4.35
2023-01-27T18:56:48.741Z,4.45
2023-01-27T18:59:19.449Z,3.70
2023-01-27T19:01:50.390Z,4.53
2023-01-27T19:04:21.269Z,5.13
2023-01-27T19:06:52.519Z,4.38
2023-01-27T19:09:23.570Z,5.32
2023-01-27T19:11:57.841Z,5.03
2023-01-27T19:14:28.714Z,5.30
2023-01-27T19:16:59.554Z,6.13
2023-01-27T19:19:30.621Z,5.28
2023-01-27T19:22:01.588Z,4.97
2023-01-27T19:24:33.153Z,5.10
2023-01-27T19:27:09.581Z,6.05
2023-01-27T19:29:43.063Z,5.45
2023-01-27T19:32:17.266Z,6.07
2023-01-27T19:34:48.198Z,7.07
2023-01-27T19:37:21.202Z,7.53
2023-01-27T19:39:52.113Z,7.90
2023-01-27T19:42:25.532Z,7.68
2023-01-27T19:44:57.652Z,7.55
2023-01-27T19:47:28.478Z,8.55
2023-01-27T19:49:59.177Z,7.47
2023-01-27T19:52:29.979Z,7.85
2023-01-27T19:55:00.777Z,8.23
2023-01-27T19:57:35.941Z,8.43
2023-01-27T20:00:08.300Z,8.50
2023-01-27T20:02:43.799Z,8.02
2023-01-27T20:05:14.978Z,8.65
2023-01-27T20:07:46.556Z,8.80
2023-01-27T20:10:22.918Z,8.60
2023-01-27T20:13:02.082Z,8.55
2023-01-27T20:15:37.388Z,8.50
2023-01-27T20:18:08.888Z,7.78
2023-01-27T20:20:39.706Z,8.05
2023-01-27T20:23:11.980Z,8.55
2023-01-27T20:25:42.883Z,9.27
2023-01-27T20:28:16.378Z,9.30
2023-01-27T20:30:47.398Z,9.85
2023-01-27T20:33:18.445Z,10.38
2023-01-27T20:35:49.410Z,9.35
2023-01-27T20:38:20.315Z,9.52
2023-01-27T20:40:51.076Z,9.18
2023-01-27T20:43:34.762Z,9.10
2023-01-27T20:46:07.263Z,9.65
2023-01-27T20:48:38.580Z,9.98
2023-01-27T20:51:11.345Z,10.68
2023-01-27T20:53:45.806Z,10.85
2023-01-27T20:56:18.846Z,9.68
2023-01-27T20:58:52.675Z,11.18
2023-01-27T21:01:25.198Z,10.48
2023-01-27T21:03:56.017Z,11.18
2023-01-27T21:06:26.892Z,11.32
2023-01-27T21:08:57.863Z,11.50
2023-01-27T21:11:28.682Z,11.40
2023-01-27T21:14:02.306Z,11.25
2023-01-27T21:16:35.288Z,12.07
2023-01-27T21:19:06.396Z,10.02
2023-01-27T21:21:37.488Z,10.98
2023-01-27T21:24:09.326Z,10.93
2023-01-27T21:26:40.637Z,10.48
2023-01-27T21:29:15.809Z,11.00
2023-01-27T21:31:46.618Z,10.45
2023-01-27T21:34:17.491Z,10.43
2023-01-27T21:36:48.293Z,11.20
2023-01-27T21:39:19.278Z,9.90
2023-01-27T21:42:02.285Z,11.88
2023-01-27T21:44:47.972Z,11.60
2023-01-27T21:47:20.816Z,11.18
2023-01-27T21:50:04.493Z,11.10
2023-01-27T21:52:39.347Z,10.82
2023-01-27T21:55:13.168Z,10.60
2023-01-27T21:57:45.986Z,11.52
2023-01-27T22:00:23.416Z,11.82
2023-01-27T22:02:58.264Z,10.93
2023-01-27T22:05:30.130Z,10.55
2023-01-27T22:08:01.899Z,10.60
2023-01-27T22:10:33.925Z,10.43
2023-01-27T22:13:08.478Z,10.68
2023-01-27T22:15:42.175Z,9.88
2023-01-27T22:18:13.672Z,8.80
2023-01-27T22:20:44.529Z,9.98
2023-01-27T22:23:15.304Z,8.93
2023-01-27T22:25:51.664Z,9.40
2023-01-27T22:28:23.248Z,9.32
2023-01-27T22:30:57.022Z,8.70
2023-01-27T22:33:27.963Z,9.50
2023-01-27T22:36:07.127Z,9.75
2023-01-27T22:38:41.673Z,8.48
2023-01-27T22:41:12.489Z,8.43
2023-01-27T22:43:43.471Z,8.88
2023-01-27T22:46:16.819Z,9.15
2023-01-27T22:48:50.077Z,9.90
2023-01-27T22:51:20.912Z,9.35
2023-01-27T22:53:51.662Z,8.10
2023-01-27T22:56:22.413Z,8.88
2023-01-27T22:58:53.170Z,8.85
2023-01-27T23:01:26.639Z,9.98
2023-01-27T23:03:57.411Z,9.45
2023-01-27T23:06:28.353Z,9.75
2023-01-27T23:08:59.069Z,8.90
2023-01-27T23:11:29.930Z,9.85
2023-01-27T23:14:00.803Z,9.98
2023-01-27T23:16:36.673Z,9.50
2023-01-27T23:19:07.713Z,9.23
2023-01-27T23:21:38.469Z,8.85
2023-01-27T23:24:09.502Z,9.75
2023-01-27T23:26:40.311Z,9.38
2023-01-27T23:29:24.142Z,10.02
2023-01-27T23:31:58.523Z,10.48
2023-01-27T23:34:29.559Z,12.20
2023-01-27T23:37:00.475Z,12.55
2023-01-27T23:39:31.301Z,11.40
2023-01-27T23:42:02.083Z,10.70
2023-01-27T23:44:32.979Z,9.32
2023-01-27T23:47:06.592Z,9.20
2023-01-27T23:49:37.360Z,8.57
2023-01-27T23:52:08.584Z,8.85
2023-01-27T23:54:39.381Z,8.18
2023-01-27T23:57:10.254Z,8.52
2023-01-27T23:59:41.495Z,8.10
